Time;durP1;ratioP1;P1;durP2;ratioP2;P2;SDS_P1;SDS_P2;PMS_P1;PMS_P2;Temp;Humidity;BMP_temperature;BMP_pressure;BME280_temperature;BME280_humidity;BME280_pressure;Samples;Min_cycle;Max_cycle;Signal;HPM_P1;HPM_P2
2023/07/11 00:00:06;;;;;;;;;;;22.60;72.70;;;;;;5089540;28;20498;-75
2023/07/11 00:02:31;;;;;;;;;;;22.60;72.70;;;;;;5104468;28;20626;-75
2023/07/11 00:04:57;;;;;;;;;;;22.50;72.60;;;;;;5108263;28;19968;-75
2023/07/11 00:07:23;;;;;;;;;;;22.50;72.50;;;;;;5122929;27;19938;-75
2023/07/11 00:09:49;;;;;;;;;;;22.50;72.80;;;;;;5128972;27;19938;-75
2023/07/11 00:12:15;;;;;;;;;;;22.40;72.80;;;;;;5110767;27;19912;-75
2023/07/11 00:14:41;;;;;;;;;;;22.50;72.80;;;;;;5109538;28;19911;-75
2023/07/11 00:17:06;;;;;;;;;;;22.40;72.90;;;;;;5109373;28;20364;-75
2023/07/11 00:19:48;;;;;;;;;;;22.40;73.00;;;;;;5113708;27;19912;-75
2023/07/11 00:22:14;;;;;;;;;;;22.40;73.10;;;;;;5111682;27;19923;-75
2023/07/11 00:24:40;;;;;;;;;;;22.30;73.00;;;;;;5118780;27;19908;-75
2023/07/11 00:27:05;;;;;;;;;;;22.30;73.20;;;;;;5108223;28;19908;-75
2023/07/11 00:29:31;;;;;;;;;;;22.20;73.10;;;;;;5109594;28;19911;-75
2023/07/11 00:31:56;;;;;;;;;;;22.20;73.10;;;;;;5109469;27;19919;-75
2023/07/11 00:34:22;;;;;;;;;;;22.20;73.30;;;;;;5109511;28;19916;-75
2023/07/11 00:36:47;;;;;;;;;;;22.20;73.40;;;;;;5108851;28;19919;-75
2023/07/11 00:39:15;;;;;;;;;;;22.20;73.50;;;;;;5118903;27;19912;-75
2023/07/11 00:41:41;;;;;;;;;;;22.10;73.50;;;;;;5129901;27;19907;-75
2023/07/11 00:44:13;;;;;;;;;;;22.10;73.50;;;;;;5129883;27;19926;-75
2023/07/11 00:46:39;;;;;;;;;;;22.10;73.50;;;;;;5126312;27;19919;-75
2023/07/11 00:49:05;;;;;;;;;;;22.10;73.70;;;;;;5129643;27;19907;-75
2023/07/11 00:51:32;;;;;;;;;;;22.10;73.70;;;;;;5115667;27;19908;-75
2023/07/11 00:53:59;;;;;;;;;;;22.00;73.50;;;;;;5104770;28;19916;-75
2023/07/11 00:56:26;;;;;;;;;;;22.00;73.40;;;;;;5108279;28;20360;-75
2023/07/11 00:58:52;;;;;;;;;;;22.00;73.70;;;;;;5108960;28;20022;-75
2023/07/11 01:01:18;;;;;;;;;;;22.00;74.30;;;;;;5108744;28;20026;-75
2023/07/11 01:03:44;;;;;;;;;;;22.00;73.70;;;;;;5108840;28;20529;-75
2023/07/11 01:06:11;;;;;;;;;;;21.90;73.50;;;;;;5108649;28;19994;-75
2023/07/11 01:08:36;;;;;;;;;;;21.90;73.50;;;;;;5108938;28;19912;-75
2023/07/11 01:11:02;;;;;;;;;;;21.90;73.70;;;;;;5112473;28;19911;-75
2023/07/11 01:13:27;;;;;;;;;;;21.90;73.70;;;;;;5108846;28;19914;-75
2023/07/11 01:15:53;;;;;;;;;;;21.90;73.60;;;;;;5109302;28;19915;-75
2023/07/11 01:18:19;;;;;;;;;;;21.80;73.50;;;;;;5108866;27;19912;-75
2023/07/11 01:20:44;;;;;;;;;;;21.80;73.70;;;;;;5115593;28;20280;-75
2023/07/11 01:23:10;;;;;;;;;;;21.80;73.70;;;;;;5108421;28;20341;-75
2023/07/11 01:25:36;;;;;;;;;;;21.80;73.80;;;;;;5090863;28;20639;-75
2023/07/11 01:28:01;;;;;;;;;;;21.70;73.60;;;;;;5119237;28;19937;-74
2023/07/11 01:30:27;;;;;;;;;;;21.70;73.50;;;;;;5129414;27;19911;-75
2023/07/11 01:32:52;;;;;;;;;;;21.70;74.00;;;;;;5118762;27;19954;-75
2023/07/11 01:35:18;;;;;;;;;;;21.70;73.80;;;;;;5108693;28;19912;-75
2023/07/11 01:37:43;;;;;;;;;;;21.70;73.70;;;;;;5108626;28;20005;-75
2023/07/11 01:40:09;;;;;;;;;;;21.60;73.80;;;;;;5108743;28;19972;-74
2023/07/11 01:42:35;;;;;;;;;;;21.70;73.90;;;;;;5110555;28;19916;-75
2023/07/11 01:45:00;;;;;;;;;;;21.60;73.70;;;;;;5129447;27;20616;-75
2023/07/11 01:47:26;;;;;;;;;;;21.60;73.80;;;;;;5128843;27;19918;-75
2023/07/11 01:49:51;;;;;;;;;;;21.60;73.90;;;;;;5129181;27;20005;-75
2023/07/11 01:52:18;;;;;;;;;;;21.60;74.20;;;;;;5103002;28;20486;-75
2023/07/11 01:54:44;;;;;;;;;;;21.50;73.90;;;;;;5101978;28;20365;-75
2023/07/11 01:57:09;;;;;;;;;;;21.50;74.00;;;;;;5108407;28;19915;-75
2023/07/11 01:59:35;;;;;;;;;;;21.50;74.10;;;;;;5109875;28;19912;-75
2023/07/11 02:02:01;;;;;;;;;;;21.50;74.20;;;;;;5108741;28;19908;-75
2023/07/11 02:04:27;;;;;;;;;;;21.50;74.20;;;;;;5108246;28;19919;-74
2023/07/11 02:06:52;;;;;;;;;;;21.40;73.90;;;;;;5108237;28;19912;-74
2023/07/11 02:09:18;;;;;;;;;;;21.40;74.20;;;;;;5112245;28;19922;-75
2023/07/11 02:11:44;;;;;;;;;;;21.40;74.30;;;;;;5111427;28;19916;-75
2023/07/11 02:14:12;;;;;;;;;;;21.40;74.30;;;;;;5111591;28;19987;-75
2023/07/11 02:16:37;;;;;;;;;;;21.40;74.20;;;;;;5112672;27;19927;-75
2023/07/11 02:19:02;;;;;;;;;;;21.40;74.40;;;;;;5111937;27;19915;-75
2023/07/11 02:21:28;;;;;;;;;;;21.30;74.30;;;;;;5118666;27;19911;-74
2023/07/11 02:23:53;;;;;;;;;;;21.30;74.20;;;;;;5106673;28;19920;-75
2023/07/11 02:26:19;;;;;;;;;;;21.30;74.30;;;;;;5091383;28;20392;-75
2023/07/11 02:28:44;;;;;;;;;;;21.30;74.40;;;;;;5091481;28;19908;-75
2023/07/11 02:31:10;;;;;;;;;;;21.30;74.70;;;;;;5094945;27;19947;-75
2023/07/11 02:33:35;;;;;;;;;;;21.20;74.40;;;;;;5112146;27;19916;-75
2023/07/11 02:36:01;;;;;;;;;;;21.20;74.40;;;;;;5125262;27;19919;-74
2023/07/11 02:38:26;;;;;;;;;;;21.20;74.60;;;;;;5131785;27;19915;-75
2023/07/11 02:40:52;;;;;;;;;;;21.20;74.40;;;;;;5132318;27;19914;-74
2023/07/11 02:43:18;;;;;;;;;;;21.20;74.60;;;;;;5132159;27;20300;-75
2023/07/11 02:45:43;;;;;;;;;;;21.20;74.50;;;;;;5131992;27;19952;-75
2023/07/11 02:48:09;;;;;;;;;;;21.10;74.70;;;;;;5130133;27;19915;-76
2023/07/11 02:50:34;;;;;;;;;;;21.10;74.60;;;;;;5128565;27;20506;-75
2023/07/11 02:53:00;;;;;;;;;;;21.10;74.60;;;;;;5130263;27;19914;-75
2023/07/11 02:55:25;;;;;;;;;;;21.10;74.60;;;;;;5115020;27;19919;-74
2023/07/11 02:57:51;;;;;;;;;;;21.10;74.60;;;;;;5111005;28;19990;-74
2023/07/11 03:00:16;;;;;;;;;;;21.10;74.60;;;;;;5111214;28;20005;-74
2023/07/11 03:02:42;;;;;;;;;;;21.00;74.70;;;;;;5111141;28;19912;-74
2023/07/11 03:05:08;;;;;;;;;;;21.00;74.80;;;;;;5112204;27;19937;-74
2023/07/11 03:07:33;;;;;;;;;;;21.00;74.70;;;;;;5110759;27;19955;-74
2023/07/11 03:09:59;;;;;;;;;;;21.00;74.80;;;;;;5111041;28;20396;-74
2023/07/11 03:12:24;;;;;;;;;;;21.00;74.70;;;;;;5103624;28;19908;-74
2023/07/11 03:14:50;;;;;;;;;;;20.90;74.60;;;;;;5110693;28;20544;-74
2023/07/11 03:17:16;;;;;;;;;;;20.90;74.70;;;;;;5110079;28;20436;-74
2023/07/11 03:19:41;;;;;;;;;;;20.90;74.90;;;;;;5113737;27;20287;-74
2023/07/11 03:22:07;;;;;;;;;;;20.90;74.60;;;;;;5119088;27;19918;-74
2023/07/11 03:24:32;;;;;;;;;;;20.90;74.80;;;;;;5110955;28;19911;-74
2023/07/11 03:26:58;;;;;;;;;;;20.90;74.80;;;;;;5110637;27;19912;-74
2023/07/11 03:29:23;;;;;;;;;;;20.90;74.90;;;;;;5110783;28;19919;-74
2023/07/11 03:31:49;;;;;;;;;;;20.90;74.90;;;;;;5110427;27;19962;-74
2023/07/11 03:34:14;;;;;;;;;;;20.90;74.90;;;;;;5110663;28;20011;-74
2023/07/11 03:36:41;;;;;;;;;;;20.90;74.90;;;;;;5119311;27;19942;-74
2023/07/11 03:39:06;;;;;;;;;;;20.80;74.90;;;;;;5130948;27;19915;-74
2023/07/11 03:41:32;;;;;;;;;;;20.80;75.00;;;;;;5130798;27;19917;-75
2023/07/11 03:43:58;;;;;;;;;;;20.80;75.00;;;;;;5129437;27;19972;-74
2023/07/11 03:46:23;;;;;;;;;;;20.80;75.60;;;;;;5130525;27;19911;-74
2023/07/11 03:48:49;;;;;;;;;;;20.80;75.10;;;;;;5130603;27;20272;-74
2023/07/11 03:51:14;;;;;;;;;;;20.80;75.10;;;;;;5118863;27;20012;-74
2023/07/11 03:53:40;;;;;;;;;;;20.80;75.00;;;;;;5109519;27;19912;-74
2023/07/11 03:56:07;;;;;;;;;;;20.80;75.10;;;;;;5089509;28;19939;-74
2023/07/11 03:58:32;;;;;;;;;;;20.80;75.10;;;;;;5089820;28;19908;-74
2023/07/11 04:00:58;;;;;;;;;;;20.70;75.20;;;;;;5089644;28;20426;-74
2023/07/11 04:03:23;;;;;;;;;;;20.70;75.20;;;;;;5090330;28;19991;-74
2023/07/11 04:05:50;;;;;;;;;;;20.70;75.20;;;;;;5109488;28;19911;-74
2023/07/11 04:08:15;;;;;;;;;;;20.70;75.20;;;;;;5109619;27;20284;-75
2023/07/11 04:10:41;;;;;;;;;;;20.70;75.30;;;;;;5103851;28;20090;-74
2023/07/11 04:13:06;;;;;;;;;;;20.70;75.20;;;;;;5108215;28;19918;-74
2023/07/11 04:15:32;;;;;;;;;;;20.70;75.20;;;;;;5109557;28;19958;-75
2023/07/11 04:17:57;;;;;;;;;;;20.70;75.10;;;;;;5109684;28;20007;-74
2023/07/11 04:20:23;;;;;;;;;;;20.70;75.30;;;;;;5115465;27;19961;-75
2023/07/11 04:22:48;;;;;;;;;;;20.60;75.30;;;;;;5106717;27;19927;-74
2023/07/11 04:25:14;;;;;;;;;;;20.60;75.30;;;;;;5111271;27;19922;-74
2023/07/11 04:27:39;;;;;;;;;;;20.70;75.20;;;;;;5129738;27;19911;-74
2023/07/11 04:30:06;;;;;;;;;;;20.60;75.30;;;;;;5129722;27;19911;-74
2023/07/11 04:32:32;;;;;;;;;;;20.60;75.40;;;;;;5129994;27;20008;-75
2023/07/11 04:34:57;;;;;;;;;;;20.60;75.50;;;;;;5115731;27;20010;-74
2023/07/11 04:37:23;;;;;;;;;;;20.60;75.50;;;;;;5109248;28;19953;-74
2023/07/11 04:39:48;;;;;;;;;;;20.70;75.50;;;;;;5109411;28;19912;-74
2023/07/11 04:42:14;;;;;;;;;;;20.60;75.50;;;;;;5124396;27;20298;-75
2023/07/11 04:44:39;;;;;;;;;;;20.60;75.40;;;;;;5129831;27;19908;-74
2023/07/11 04:47:06;;;;;;;;;;;20.60;75.50;;;;;;5129441;27;19911;-74
2023/07/11 04:49:31;;;;;;;;;;;20.60;75.50;;;;;;5126250;27;20015;-74
2023/07/11 04:51:57;;;;;;;;;;;20.60;75.60;;;;;;5105475;27;20412;-74
2023/07/11 04:54:22;;;;;;;;;;;20.60;75.70;;;;;;5109212;28;20554;-74
2023/07/11 04:56:54;;;;;;;;;;;20.60;75.60;;;;;;5107903;28;19914;-74
2023/07/11 04:59:19;;;;;;;;;;;20.60;75.60;;;;;;5109305;27;20002;-74
2023/07/11 05:01:45;;;;;;;;;;;20.60;75.60;;;;;;5109027;28;20022;-74
2023/07/11 05:04:10;;;;;;;;;;;20.60;75.60;;;;;;5108771;28;19986;-74
2023/07/11 05:06:36;;;;;;;;;;;20.60;75.60;;;;;;5108513;28;19912;-74
2023/07/11 05:09:01;;;;;;;;;;;20.60;75.60;;;;;;5109278;28;19916;-74
2023/07/11 05:11:27;;;;;;;;;;;20.60;75.60;;;;;;5108780;28;20462;-74
2023/07/11 05:13:52;;;;;;;;;;;20.60;75.50;;;;;;5109741;28;20381;-74
2023/07/11 05:16:20;;;;;;;;;;;20.70;75.60;;;;;;5108817;28;19943;-74
2023/07/11 05:18:47;;;;;;;;;;;20.70;75.50;;;;;;5108689;28;19941;-75
2023/07/11 05:21:14;;;;;;;;;;;20.70;76.20;;;;;;5115610;28;19962;-75
2023/07/11 05:23:40;;;;;;;;;;;20.70;75.50;;;;;;5107059;28;19939;-74
2023/07/11 05:26:06;;;;;;;;;;;20.70;75.50;;;;;;5088188;28;20622;-75
2023/07/11 05:28:32;;;;;;;;;;;20.70;75.50;;;;;;5088521;28;19955;-75
2023/07/11 05:31:00;;;;;;;;;;;20.70;76.10;;;;;;5102475;28;20316;-74
2023/07/11 05:33:28;;;;;;;;;;;20.70;75.50;;;;;;5107987;28;20216;-74
2023/07/11 05:38:42;;;;;;;;;;;20.70;75.50;;;;;;5108948;28;20024;-74
2023/07/11 05:41:07;;;;;;;;;;;20.70;75.40;;;;;;5109414;28;20351;-74
2023/07/11 05:43:33;;;;;;;;;;;20.70;75.40;;;;;;5112743;28;19919;-74
2023/07/11 05:45:58;;;;;;;;;;;20.70;75.50;;;;;;5111201;27;20004;-74
2023/07/11 05:48:24;;;;;;;;;;;20.70;75.50;;;;;;5133083;27;19912;-74
2023/07/11 05:50:59;;;;;;;;;;;20.70;75.50;;;;;;5118391;27;19911;-74
2023/07/11 05:53:25;;;;;;;;;;;20.80;75.50;;;;;;5112418;28;19912;-74
2023/07/11 05:55:51;;;;;;;;;;;20.80;75.30;;;;;;5126942;27;19934;-74
2023/07/11 05:58:17;;;;;;;;;;;20.70;75.30;;;;;;5132982;27;19946;-74
2023/07/11 06:00:43;;;;;;;;;;;20.80;75.30;;;;;;5132893;27;19907;-75
2023/07/11 06:03:08;;;;;;;;;;;20.80;75.30;;;;;;5121412;27;19920;-74
2023/07/11 06:05:34;;;;;;;;;;;20.80;75.30;;;;;;5111658;28;19928;-74
2023/07/11 06:08:00;;;;;;;;;;;20.70;75.30;;;;;;5111488;28;20364;-74
2023/07/11 06:10:25;;;;;;;;;;;20.80;75.20;;;;;;5107952;28;19912;-75
2023/07/11 06:12:51;;;;;;;;;;;20.80;75.30;;;;;;5108161;28;19912;-74
2023/07/11 06:15:17;;;;;;;;;;;20.80;75.20;;;;;;5112164;28;19923;-74
2023/07/11 06:17:43;;;;;;;;;;;20.80;75.10;;;;;;5111927;28;19984;-74
2023/07/11 06:20:09;;;;;;;;;;;20.80;75.00;;;;;;5119690;27;19915;-75
2023/07/11 06:22:37;;;;;;;;;;;20.80;75.10;;;;;;5111761;28;19920;-74
2023/07/11 06:25:03;;;;;;;;;;;20.80;75.00;;;;;;5111664;28;19917;-75
2023/07/11 06:27:29;;;;;;;;;;;20.90;75.10;;;;;;5111658;28;20388;-75
2023/07/11 06:29:55;;;;;;;;;;;20.90;75.00;;;;;;5111998;28;19915;-74
2023/07/11 06:32:20;;;;;;;;;;;20.90;74.90;;;;;;5110598;28;19912;-75
2023/07/11 06:34:46;;;;;;;;;;;20.90;74.90;;;;;;5115593;27;19915;-75
2023/07/11 06:37:11;;;;;;;;;;;20.90;74.80;;;;;;5131980;27;19918;-75
2023/07/11 06:39:37;;;;;;;;;;;20.90;74.80;;;;;;5132215;27;19917;-75
2023/07/11 06:42:03;;;;;;;;;;;20.90;74.80;;;;;;5132235;27;19907;-75
2023/07/11 06:44:29;;;;;;;;;;;21.00;74.80;;;;;;5132357;27;19964;-75
2023/07/11 06:46:55;;;;;;;;;;;21.00;75.30;;;;;;5131801;27;19911;-74
2023/07/11 06:49:20;;;;;;;;;;;21.00;74.60;;;;;;5130718;27;19950;-75
2023/07/11 06:51:48;;;;;;;;;;;21.00;74.60;;;;;;5116391;27;19915;-75
2023/07/11 06:54:13;;;;;;;;;;;21.10;74.50;;;;;;5105832;27;19943;-74
2023/07/11 06:56:39;;;;;;;;;;;21.10;74.60;;;;;;5119146;27;20012;-75
2023/07/11 06:59:04;;;;;;;;;;;21.10;74.50;;;;;;5111065;28;20424;-75
2023/07/11 07:01:30;;;;;;;;;;;21.10;74.40;;;;;;5109813;28;19951;-75
2023/07/11 07:03:55;;;;;;;;;;;21.10;74.30;;;;;;5111146;28;19922;-75
2023/07/11 07:06:21;;;;;;;;;;;21.20;74.30;;;;;;5110351;27;20003;-75
2023/07/11 07:08:46;;;;;;;;;;;21.20;74.30;;;;;;5110905;27;20680;-75
2023/07/11 07:11:12;;;;;;;;;;;21.20;74.40;;;;;;5099304;27;20016;-74
2023/07/11 07:13:38;;;;;;;;;;;21.20;74.20;;;;;;5111424;27;19908;-75
2023/07/11 07:16:03;;;;;;;;;;;21.30;74.60;;;;;;5110796;28;19919;-75
2023/07/11 07:18:32;;;;;;;;;;;21.30;74.30;;;;;;5110779;28;19912;-75
2023/07/11 07:20:58;;;;;;;;;;;21.30;74.10;;;;;;5110165;27;20014;-75
2023/07/11 07:23:25;;;;;;;;;;;21.30;74.10;;;;;;5104345;27;20033;-75
2023/07/11 07:25:52;;;;;;;;;;;21.30;74.20;;;;;;5106565;28;19912;-75
2023/07/11 07:28:17;;;;;;;;;;;21.40;74.10;;;;;;5108964;28;19912;-75
2023/07/11 07:30:52;;;;;;;;;;;21.40;74.10;;;;;;5108154;28;19919;-75
2023/07/11 07:33:19;;;;;;;;;;;21.40;74.10;;;;;;5093986;27;20422;-75
2023/07/11 07:35:44;;;;;;;;;;;21.40;74.00;;;;;;5109366;28;19912;-75
2023/07/11 07:38:10;;;;;;;;;;;21.50;73.80;;;;;;5108869;28;19923;-75
2023/07/11 07:40:36;;;;;;;;;;;21.50;73.80;;;;;;5108901;28;19920;-75
2023/07/11 07:43:01;;;;;;;;;;;21.50;73.80;;;;;;5108224;28;20223;-75
2023/07/11 07:45:27;;;;;;;;;;;21.50;73.80;;;;;;5109828;28;19918;-75
2023/07/11 07:47:52;;;;;;;;;;;21.60;73.90;;;;;;5120009;27;19915;-75
2023/07/11 07:50:19;;;;;;;;;;;21.60;73.80;;;;;;5126572;27;20373;-75
2023/07/11 07:52:44;;;;;;;;;;;21.60;73.70;;;;;;5109567;28;20397;-76
2023/07/11 07:55:10;;;;;;;;;;;21.70;73.70;;;;;;5095599;28;19944;-75
2023/07/11 07:57:36;;;;;;;;;;;21.70;73.60;;;;;;5089509;28;20253;-75
2023/07/11 08:00:02;;;;;;;;;;;21.70;73.70;;;;;;5089570;28;20011;-75
2023/07/11 08:02:31;;;;;;;;;;;21.80;73.50;;;;;;5089383;28;19908;-75
2023/07/11 08:04:59;;;;;;;;;;;21.80;73.50;;;;;;5109386;27;19912;-76
2023/07/11 08:07:25;;;;;;;;;;;21.80;73.50;;;;;;5108952;28;19951;-76
2023/07/11 08:09:52;;;;;;;;;;;21.90;73.40;;;;;;5108776;28;19912;-76
2023/07/11 08:12:18;;;;;;;;;;;21.90;73.20;;;;;;5101346;28;19916;-75
2023/07/11 08:14:43;;;;;;;;;;;21.90;73.30;;;;;;5108820;28;19919;-75
2023/07/11 08:17:09;;;;;;;;;;;21.90;73.30;;;;;;5108639;28;19916;-76
2023/07/11 08:19:35;;;;;;;;;;;22.00;73.20;;;;;;5113744;27;19907;-76
2023/07/11 08:22:00;;;;;;;;;;;22.00;73.30;;;;;;5110781;27;20424;-75
2023/07/11 08:24:26;;;;;;;;;;;22.00;73.30;;;;;;5101209;28;19920;-76
2023/07/11 08:26:52;;;;;;;;;;;22.00;73.20;;;;;;5088060;28;20012;-76
2023/07/11 08:29:17;;;;;;;;;;;22.10;73.20;;;;;;5086752;28;20266;-75
2023/07/11 08:31:43;;;;;;;;;;;22.20;73.00;;;;;;5086659;28;19935;-76
2023/07/11 08:34:09;;;;;;;;;;;22.20;73.20;;;;;;5095262;28;20065;-76
2023/07/11 08:36:36;;;;;;;;;;;22.20;73.00;;;;;;5107943;27;20259;-76
2023/07/11 08:39:02;;;;;;;;;;;22.20;72.90;;;;;;5108047;28;19919;-76
2023/07/11 08:41:27;;;;;;;;;;;22.20;72.90;;;;;;5107936;28;19922;-76
2023/07/11 08:43:56;;;;;;;;;;;22.20;72.90;;;;;;5108200;28;20038;-76
2023/07/11 08:46:23;;;;;;;;;;;22.30;72.90;;;;;;5108237;28;19923;-76
2023/07/11 08:48:51;;;;;;;;;;;22.30;72.80;;;;;;5107793;28;19912;-75
2023/07/11 08:51:16;;;;;;;;;;;22.40;72.70;;;;;;5115360;27;19919;-76
2023/07/11 08:53:49;;;;;;;;;;;22.40;72.50;;;;;;5126701;27;19916;-75
2023/07/11 08:56:14;;;;;;;;;;;22.50;72.50;;;;;;5104709;28;19912;-76
2023/07/11 08:58:41;;;;;;;;;;;22.60;72.30;;;;;;5106429;28;19908;-76
2023/07/11 09:01:14;;;;;;;;;;;22.70;72.40;;;;;;5107194;28;19951;-75
2023/07/11 09:03:43;;;;;;;;;;;22.80;72.20;;;;;;5107333;28;19916;-76
2023/07/11 09:06:12;;;;;;;;;;;22.80;72.00;;;;;;5107409;28;19907;-76
2023/07/11 09:08:42;;;;;;;;;;;22.90;71.70;;;;;;5118272;28;19915;-76
2023/07/11 09:11:27;;;;;;;;;;;23.00;71.70;;;;;;5101287;27;19966;-75
2023/07/11 09:13:59;;;;;;;;;;;23.10;71.60;;;;;;5107405;28;19916;-76
2023/07/11 09:16:34;;;;;;;;;;;23.10;71.50;;;;;;5109217;28;20016;-76
2023/07/11 09:19:23;;;;;;;;;;;23.20;71.50;;;;;;5107643;28;19915;-76
2023/07/11 09:22:03;;;;;;;;;;;23.30;71.40;;;;;;5111412;28;19946;-76
2023/07/11 09:24:40;;;;;;;;;;;23.30;71.10;;;;;;5100368;27;19920;-76
2023/07/11 09:27:09;;;;;;;;;;;23.40;70.90;;;;;;5101856;27;20626;-75
2023/07/11 09:29:34;;;;;;;;;;;23.50;70.80;;;;;;5111783;27;19938;-76
2023/07/11 09:32:01;;;;;;;;;;;23.50;70.80;;;;;;5111351;28;19907;-75
2023/07/11 09:34:37;;;;;;;;;;;23.60;70.80;;;;;;5111568;28;19998;-76
2023/07/11 09:37:09;;;;;;;;;;;23.60;70.70;;;;;;5108929;28;20353;-76
2023/07/11 09:39:40;;;;;;;;;;;23.70;70.80;;;;;;5111311;28;19912;-76
2023/07/11 09:42:18;;;;;;;;;;;23.70;70.60;;;;;;5111672;27;20269;-76
2023/07/11 09:44:56;;;;;;;;;;;23.70;70.60;;;;;;5106629;27;20561;-76
2023/07/11 09:47:22;;;;;;;;;;;23.80;70.50;;;;;;5110808;27;19920;-76
2023/07/11 09:49:48;;;;;;;;;;;23.80;70.30;;;;;;5111696;28;20365;-76
2023/07/11 09:52:20;;;;;;;;;;;23.90;70.30;;;;;;5111271;28;19907;-76
2023/07/11 09:54:46;;;;;;;;;;;23.90;70.40;;;;;;5100252;28;19908;-76
2023/07/11 09:57:12;;;;;;;;;;;23.90;70.40;;;;;;5110705;27;20462;-76
2023/07/11 09:59:38;;;;;;;;;;;23.90;70.50;;;;;;5120665;27;19998;-76
2023/07/11 10:02:04;;;;;;;;;;;23.90;70.70;;;;;;5111045;28;20002;-76
2023/07/11 10:04:30;;;;;;;;;;;23.90;70.70;;;;;;5110784;28;19916;-76
2023/07/11 10:06:57;;;;;;;;;;;23.90;70.70;;;;;;5110670;28;19929;-76
2023/07/11 10:09:24;;;;;;;;;;;23.90;70.70;;;;;;5110915;28;19912;-76
2023/07/11 10:11:55;;;;;;;;;;;24.00;70.50;;;;;;5109812;28;19951;-76
2023/07/11 10:14:24;;;;;;;;;;;24.10;70.30;;;;;;5112918;27;20474;-76
2023/07/11 10:16:49;;;;;;;;;;;24.20;70.00;;;;;;5107842;28;19919;-76
2023/07/11 10:19:17;;;;;;;;;;;24.30;70.00;;;;;;5112274;27;19908;-75
2023/07/11 10:21:49;;;;;;;;;;;24.30;70.00;;;;;;5111250;27;19960;-76
2023/07/11 10:24:36;;;;;;;;;;;24.30;70.10;;;;;;5110577;28;19919;-76
2023/07/11 10:27:04;;;;;;;;;;;24.40;69.90;;;;;;5109561;28;19951;-75
2023/07/11 10:29:33;;;;;;;;;;;24.50;69.90;;;;;;5110512;27;19912;-76
2023/07/11 10:32:05;;;;;;;;;;;24.60;69.70;;;;;;5110516;28;20684;-76
2023/07/11 10:34:51;;;;;;;;;;;24.70;69.60;;;;;;5108104;28;19955;-76
2023/07/11 10:37:16;;;;;;;;;;;24.70;69.50;;;;;;5108610;28;20621;-76
2023/07/11 10:39:45;;;;;;;;;;;24.90;69.10;;;;;;5110476;28;19911;-76
2023/07/11 10:42:26;;;;;;;;;;;25.00;69.40;;;;;;5110254;28;20622;-76
2023/07/11 10:44:56;;;;;;;;;;;25.00;69.00;;;;;;5110777;27;20000;-76
2023/07/11 10:47:27;;;;;;;;;;;25.20;69.10;;;;;;5110162;28;19926;-76
2023/07/11 10:49:54;;;;;;;;;;;25.30;69.10;;;;;;5110379;28;19919;-76
2023/07/11 10:52:24;;;;;;;;;;;25.30;69.10;;;;;;5110160;28;19978;-76
2023/07/11 10:55:13;;;;;;;;;;;25.40;69.20;;;;;;5099226;28;19915;-76
2023/07/11 10:57:41;;;;;;;;;;;25.50;69.30;;;;;;5089892;28;19962;-76
2023/07/11 11:00:16;;;;;;;;;;;25.60;69.20;;;;;;5089847;28;19912;-76
2023/07/11 11:02:44;;;;;;;;;;;25.70;69.10;;;;;;5107824;27;20395;-76
2023/07/11 11:05:16;;;;;;;;;;;25.70;69.20;;;;;;5107553;28;19957;-76
2023/07/11 11:07:44;;;;;;;;;;;25.80;69.30;;;;;;5090337;28;19912;-76
2023/07/11 11:10:12;;;;;;;;;;;25.90;68.80;;;;;;5090768;28;20011;-76
2023/07/11 11:12:40;;;;;;;;;;;26.00;69.20;;;;;;5108392;28;19947;-75
2023/07/11 11:15:21;;;;;;;;;;;26.00;69.20;;;;;;5109746;28;19914;-76
2023/07/11 11:17:49;;;;;;;;;;;26.10;69.10;;;;;;5110991;27;19912;-76
2023/07/11 11:20:14;;;;;;;;;;;26.20;69.00;;;;;;5112024;27;19915;-76
2023/07/11 11:22:49;;;;;;;;;;;26.30;69.10;;;;;;5109111;28;19924;-75
2023/07/11 11:25:21;;;;;;;;;;;26.40;68.90;;;;;;5105577;28;20004;-75
2023/07/11 11:27:50;;;;;;;;;;;26.50;68.90;;;;;;5103354;28;19923;-75
2023/07/11 11:30:24;;;;;;;;;;;26.60;69.30;;;;;;5107929;28;20337;-76
2023/07/11 11:32:52;;;;;;;;;;;26.70;68.70;;;;;;5097694;28;19940;-75
2023/07/11 11:35:27;;;;;;;;;;;26.80;68.80;;;;;;5109556;27;19916;-75
2023/07/11 11:37:57;;;;;;;;;;;27.00;69.10;;;;;;5109325;28;20003;-75
2023/07/11 11:40:28;;;;;;;;;;;27.10;69.10;;;;;;5106176;28;19980;-75
2023/07/11 11:43:03;;;;;;;;;;;27.20;68.90;;;;;;5108041;28;20438;-75
2023/07/11 11:45:29;;;;;;;;;;;27.20;68.50;;;;;;5109680;28;19911;-76
2023/07/11 11:47:56;;;;;;;;;;;27.40;69.10;;;;;;5108431;28;19918;-75
2023/07/11 11:50:23;;;;;;;;;;;27.40;68.80;;;;;;5111242;27;19993;-75
2023/07/11 11:53:07;;;;;;;;;;;27.50;68.50;;;;;;5110025;28;19911;-74
2023/07/11 11:55:37;;;;;;;;;;;27.60;68.80;;;;;;5109182;27;19930;-74
2023/07/11 11:58:14;;;;;;;;;;;27.70;68.70;;;;;;5131159;27;19911;-74
2023/07/11 12:00:44;;;;;;;;;;;27.80;69.40;;;;;;5107136;28;19965;-74
2023/07/11 12:03:25;;;;;;;;;;;27.90;69.40;;;;;;5110098;28;19955;-74
2023/07/11 12:05:51;;;;;;;;;;;27.90;68.90;;;;;;5111090;27;19919;-74
2023/07/11 12:08:23;;;;;;;;;;;28.00;68.90;;;;;;5130282;27;19915;-74
2023/07/11 12:11:07;;;;;;;;;;;28.10;68.50;;;;;;5114475;27;19919;-74
2023/07/11 12:13:33;;;;;;;;;;;28.20;68.10;;;;;;5104216;28;19934;-73
2023/07/11 12:16:06;;;;;;;;;;;28.30;69.60;;;;;;5108858;28;20011;-74
2023/07/11 12:18:41;;;;;;;;;;;28.40;68.40;;;;;;5109703;28;19916;-73
2023/07/11 12:21:13;;;;;;;;;;;28.50;70.00;;;;;;5109256;27;20007;-75
2023/07/11 12:23:47;;;;;;;;;;;28.50;68.30;;;;;;5106892;28;19938;-74
2023/07/11 12:26:21;;;;;;;;;;;28.60;68.00;;;;;;5108163;28;19918;-74
2023/07/11 12:28:47;;;;;;;;;;;28.70;68.90;;;;;;5109264;28;19942;-74
2023/07/11 12:31:23;;;;;;;;;;;28.70;68.60;;;;;;5108401;28;20327;-74
2023/07/11 12:34:01;;;;;;;;;;;28.80;69.10;;;;;;5108916;28;19969;-74
2023/07/11 12:36:32;;;;;;;;;;;28.80;68.70;;;;;;5109394;28;19916;-74
2023/07/11 12:39:15;;;;;;;;;;;28.90;68.60;;;;;;5114271;27;19926;-74
2023/07/11 12:41:58;;;;;;;;;;;29.00;68.70;;;;;;5130320;27;19940;-74
2023/07/11 12:44:24;;;;;;;;;;;29.10;68.90;;;;;;5129678;27;19915;-74
2023/07/11 12:46:51;;;;;;;;;;;29.10;68.40;;;;;;5129277;27;20727;-74
2023/07/11 12:49:24;;;;;;;;;;;29.20;67.10;;;;;;5127814;27;19911;-74
2023/07/11 12:51:49;;;;;;;;;;;29.20;67.50;;;;;;5109477;28;20011;-74
2023/07/11 12:54:17;;;;;;;;;;;29.30;68.70;;;;;;5109197;28;20003;-73
2023/07/11 12:56:44;;;;;;;;;;;29.40;68.60;;;;;;5124986;27;19911;-74
2023/07/11 12:59:24;;;;;;;;;;;29.50;69.20;;;;;;5129679;27;19907;-74
2023/07/11 13:01:50;;;;;;;;;;;29.50;68.00;;;;;;5129638;27;19911;-73
2023/07/11 13:04:34;;;;;;;;;;;29.60;69.00;;;;;;5120937;27;19994;-74
2023/07/11 13:07:02;;;;;;;;;;;29.60;68.80;;;;;;5108386;28;19915;-74
2023/07/11 13:09:27;;;;;;;;;;;29.70;68.20;;;;;;5108940;28;19915;-74
2023/07/11 13:11:53;;;;;;;;;;;29.70;67.60;;;;;;5108876;28;19950;-74
2023/07/11 13:14:20;;;;;;;;;;;29.80;67.70;;;;;;5108754;28;19941;-74
2023/07/11 13:16:45;;;;;;;;;;;29.80;67.10;;;;;;5092315;28;19915;-74
2023/07/11 13:19:13;;;;;;;;;;;29.90;68.30;;;;;;5090127;28;19912;-74
2023/07/11 13:21:38;;;;;;;;;;;29.90;67.90;;;;;;5114257;27;19908;-75
2023/07/11 13:24:04;;;;;;;;;;;30.00;68.40;;;;;;5103593;28;19920;-74
2023/07/11 13:26:30;;;;;;;;;;;30.00;68.40;;;;;;5088484;28;19908;-73
2023/07/11 13:28:58;;;;;;;;;;;30.10;68.00;;;;;;5101239;28;19922;-73
2023/07/11 13:31:25;;;;;;;;;;;30.10;68.20;;;;;;5108928;28;20271;-74
2023/07/11 13:34:17;;;;;;;;;;;30.20;66.70;;;;;;5108701;28;19998;-73
2023/07/11 13:36:44;;;;;;;;;;;30.30;68.10;;;;;;5106203;28;20287;-74
2023/07/11 13:39:21;;;;;;;;;;;30.40;67.70;;;;;;5108670;28;19918;-74
2023/07/11 13:41:47;;;;;;;;;;;30.40;68.20;;;;;;5108888;28;20674;-74
2023/07/11 13:44:23;;;;;;;;;;;30.40;67.40;;;;;;5109771;28;19923;-74
2023/07/11 13:46:49;;;;;;;;;;;30.50;65.80;;;;;;5108804;28;19919;-74
2023/07/11 13:49:20;;;;;;;;;;;30.60;65.10;;;;;;5110047;28;19911;-74
2023/07/11 13:51:46;;;;;;;;;;;30.70;66.70;;;;;;5112943;27;19912;-74
2023/07/11 13:54:16;;;;;;;;;;;30.70;66.00;;;;;;5102305;28;19998;-74
2023/07/11 13:56:41;;;;;;;;;;;30.80;65.80;;;;;;5087629;28;19919;-74
2023/07/11 13:59:07;;;;;;;;;;;30.80;66.30;;;;;;5088295;28;19912;-74
2023/07/11 14:01:33;;;;;;;;;;;30.90;65.70;;;;;;5111330;27;19916;-74
2023/07/11 14:03:59;;;;;;;;;;;30.90;66.10;;;;;;5126586;27;19966;-74
2023/07/11 14:06:24;;;;;;;;;;;30.90;67.00;;;;;;5118020;27;19935;-74
2023/07/11 14:08:50;;;;;;;;;;;30.90;67.60;;;;;;5112206;28;19912;-74
2023/07/11 14:11:19;;;;;;;;;;;31.00;67.30;;;;;;5105476;28;20420;-74
2023/07/11 14:13:45;;;;;;;;;;;31.00;66.80;;;;;;5112064;27;20357;-74
2023/07/11 14:16:10;;;;;;;;;;;31.10;66.90;;;;;;5112031;28;19918;-74
2023/07/11 14:18:36;;;;;;;;;;;31.10;66.90;;;;;;5130248;27;19927;-74
2023/07/11 14:21:02;;;;;;;;;;;31.20;66.10;;;;;;5121264;27;19916;-74